Time;durP1;ratioP1;P1;durP2;ratioP2;P2;SDS_P1;SDS_P2;PMS_P1;PMS_P2;Temp;Humidity;BMP_temperature;BMP_pressure;BME280_temperature;BME280_humidity;BME280_pressure;Samples;Min_cycle;Max_cycle;Signal;HPM_P1;HPM_P2
2024/01/28 00:01:57;;;;;;;2.08;1.65;;;;;;;6.59;61.09;100899.84;5075687;28;20047;-63
2024/01/28 00:04:22;;;;;;;2.45;1.17;;;;;;;6.52;61.96;100898.59;5075261;28;20028;-63
2024/01/28 00:06:47;;;;;;;2.53;1.35;;;;;;;6.60;61.86;100906.78;5075079;28;20094;-63
2024/01/28 00:09:13;;;;;;;2.90;1.50;;;;;;;6.53;63.03;100904.69;5077540;28;20324;-63
2024/01/28 00:11:39;;;;;;;1.98;1.60;;;;;;;6.50;63.35;100899.66;5076156;28;20307;-63
2024/01/28 00:14:05;;;;;;;2.65;1.25;;;;;;;6.55;63.52;100898.38;5076445;28;20044;-62
2024/01/28 00:16:31;;;;;;;3.70;1.40;;;;;;;6.22;63.64;100892.81;5076498;28;20318;-62
2024/01/28 00:18:58;;;;;;;2.47;1.90;;;;;;;6.31;64.31;100887.78;5075262;28;20081;-64
2024/01/28 00:21:27;;;;;;;2.25;1.50;;;;;;;6.21;64.44;100884.06;5077475;28;20346;-64
2024/01/28 00:23:53;;;;;;;3.00;1.50;;;;;;;6.26;64.77;100891.69;5074905;28;20051;-62
2024/01/28 00:26:19;;;;;;;2.25;1.48;;;;;;;6.25;65.19;100911.88;5077060;28;20230;-62
2024/01/28 00:28:45;;;;;;;2.30;1.45;;;;;;;6.30;64.71;100906.31;5074944;28;20296;-62
2024/01/28 00:31:10;;;;;;;1.88;1.52;;;;;;;6.17;65.13;100919.44;5077111;28;20040;-62
2024/01/28 00:33:36;;;;;;;3.58;2.08;;;;;;;6.37;64.47;100918.06;5074790;28;20044;-62
2024/01/28 00:36:02;;;;;;;1.95;1.67;;;;;;;6.30;64.94;100917.66;5075523;28;20032;-64
2024/01/28 00:38:31;;;;;;;3.88;1.92;;;;;;;6.42;64.91;100928.28;5076607;28;20273;-64
2024/01/28 00:41:00;;;;;;;4.05;1.98;;;;;;;6.45;64.84;100936.81;5075667;28;20028;-63
2024/01/28 00:43:27;;;;;;;1.65;1.55;;;;;;;6.44;64.87;100942.19;5075786;28;20040;-63
2024/01/28 00:45:53;;;;;;;1.88;1.67;;;;;;;6.55;63.92;100940.47;5076260;28;20146;-64
2024/01/28 00:48:18;;;;;;;1.88;1.42;;;;;;;6.66;63.37;100939.72;5074838;28;20264;-64
2024/01/28 00:50:44;;;;;;;3.00;1.73;;;;;;;6.67;63.41;100929.09;5075787;28;20322;-63
2024/01/28 00:53:09;;;;;;;1.95;1.55;;;;;;;6.69;63.24;100937.72;5075737;28;20055;-63
2024/01/28 00:55:35;;;;;;;3.67;1.92;;;;;;;6.74;63.81;100934.75;5075958;28;20036;-63
2024/01/28 00:58:04;;;;;;;2.95;1.50;;;;;;;6.77;62.82;100931.06;5077128;28;20037;-63
2024/01/28 01:00:29;;;;;;;4.15;2.40;;;;;;;6.81;63.20;100941.28;5073729;28;20055;-63
2024/01/28 01:02:55;;;;;;;2.22;1.52;;;;;;;6.82;63.33;100942.97;5076572;28;20060;-64
2024/01/28 01:05:20;;;;;;;1.60;1.50;;;;;;;6.74;63.08;100945.28;5074721;28;20445;-65
2024/01/28 01:07:46;;;;;;;2.72;1.83;;;;;;;6.69;63.83;100952.66;5076370;28;20361;-63
2024/01/28 01:10:11;;;;;;;2.05;1.40;;;;;;;6.64;63.80;100946.88;5075257;28;20032;-63
2024/01/28 01:12:37;;;;;;;5.25;2.72;;;;;;;6.67;63.91;100936.97;5075957;28;20037;-63
2024/01/28 01:15:03;;;;;;;5.38;2.58;;;;;;;6.69;64.10;100935.09;5075597;28;20029;-64
2024/01/28 01:17:29;;;;;;;4.50;1.75;;;;;;;6.67;64.64;100944.88;5075399;28;20072;-64
2024/01/28 01:19:54;;;;;;;3.17;2.00;;;;;;;6.67;63.95;100936.16;5075711;28;20036;-63
2024/01/28 01:22:20;;;;;;;4.32;2.28;;;;;;;6.72;64.59;100941.94;5075491;28;20040;-63
2024/01/28 01:24:45;;;;;;;2.20;1.88;;;;;;;6.77;64.60;100937.19;5075173;28;20039;-63
2024/01/28 01:27:11;;;;;;;4.80;2.72;;;;;;;6.75;64.80;100938.22;5075169;28;20032;-63
2024/01/28 01:29:36;;;;;;;4.45;2.78;;;;;;;6.75;64.43;100938.22;5075800;28;20078;-63
2024/01/28 01:32:02;;;;;;;5.15;1.77;;;;;;;6.83;64.38;100934.09;5075226;28;20064;-64
2024/01/28 01:34:27;;;;;;;2.15;1.60;;;;;;;6.83;64.59;100938.53;5076387;28;20048;-63
2024/01/28 01:36:53;;;;;;;3.85;1.58;;;;;;;6.77;65.19;100936.34;5074129;28;20044;-63
2024/01/28 01:39:19;;;;;;;3.72;1.98;;;;;;;6.71;65.75;100937.59;5076110;28;20039;-62
2024/01/28 01:41:44;;;;;;;3.35;2.20;;;;;;;6.77;64.99;100934.53;5075010;28;20343;-62
2024/01/28 01:44:11;;;;;;;3.90;1.98;;;;;;;6.73;65.33;100940.97;5076124;28;20071;-63
2024/01/28 01:46:38;;;;;;;2.75;1.60;;;;;;;6.64;64.97;100942.47;5076101;28;20029;-63
2024/01/28 01:49:04;;;;;;;1.60;1.30;;;;;;;6.58;65.47;100945.53;5079787;28;20056;-63
2024/01/28 01:51:30;;;;;;;1.85;1.50;;;;;;;6.58;65.47;100947.31;5078470;28;20290;-63
2024/01/28 01:53:56;;;;;;;2.75;1.45;;;;;;;6.45;66.09;100949.13;5079525;28;20068;-63
2024/01/28 01:56:23;;;;;;;2.70;1.40;;;;;;;6.35;67.06;100955.00;5079090;28;20040;-63
2024/01/28 01:58:49;;;;;;;2.75;1.58;;;;;;;6.46;66.45;100953.44;5078946;28;20368;-62
2024/01/28 02:01:16;;;;;;;2.25;1.33;;;;;;;6.31;67.61;100965.84;5079106;28;20040;-64
2024/01/28 02:03:42;;;;;;;2.80;2.00;;;;;;;6.39;67.17;100966.16;5078401;28;20331;-64
2024/01/28 02:06:10;;;;;;;1.98;1.65;;;;;;;6.36;66.92;100963.75;5078066;28;20353;-63
2024/01/28 02:08:36;;;;;;;3.60;1.70;;;;;;;6.33;67.42;100950.81;5079487;28;20101;-62
2024/01/28 02:11:04;;;;;;;3.40;1.60;;;;;;;6.40;67.03;100954.69;5076292;28;20036;-63
2024/01/28 02:13:29;;;;;;;2.40;1.60;;;;;;;6.48;66.13;100962.91;5076028;28;20501;-64
2024/01/28 02:15:55;;;;;;;3.10;1.70;;;;;;;6.48;66.34;100962.91;5078608;28;20307;-63
2024/01/28 02:18:20;;;;;;;3.53;1.73;;;;;;;6.52;65.46;100964.38;5076242;28;20104;-63
2024/01/28 02:20:46;;;;;;;4.90;2.05;;;;;;;6.51;65.98;100967.94;5076541;28;20422;-63
2024/01/28 02:23:21;;;;;;;4.93;2.33;;;;;;;6.43;65.61;100966.78;5077808;28;20052;-63
2024/01/28 02:25:46;;;;;;;3.72;2.78;;;;;;;6.40;66.29;100962.59;5076580;28;20035;-63
2024/01/28 02:28:12;;;;;;;3.10;1.98;;;;;;;6.49;66.19;100967.22;5078317;28;20036;-64
2024/01/28 02:30:37;;;;;;;3.25;2.00;;;;;;;6.44;65.74;100974.59;5077847;28;20036;-64
2024/01/28 02:33:03;;;;;;;2.78;1.70;;;;;;;6.34;67.10;100971.75;5078461;28;20041;-63
2024/01/28 02:35:28;;;;;;;2.40;1.75;;;;;;;6.30;66.82;100967.63;5076838;28;20114;-63
2024/01/28 02:37:54;;;;;;;3.53;1.70;;;;;;;6.34;67.37;100968.28;5078698;28;20413;-63
2024/01/28 02:40:20;;;;;;;2.60;1.52;;;;;;;6.30;67.65;100969.44;5078334;28;20249;-64
2024/01/28 02:42:46;;;;;;;2.47;1.60;;;;;;;6.27;67.76;100978.38;5077938;28;20078;-63
2024/01/28 02:45:11;;;;;;;4.40;2.30;;;;;;;6.38;68.26;100982.91;5077569;28;20060;-63
2024/01/28 02:47:37;;;;;;;4.10;1.92;;;;;;;6.36;67.64;100987.41;5078762;28;20058;-62
2024/01/28 02:50:03;;;;;;;4.85;2.40;;;;;;;6.45;66.89;100988.59;5077505;28;20058;-62
2024/01/28 02:52:28;;;;;;;4.63;2.22;;;;;;;6.51;66.46;100991.63;5077872;28;20056;-62
2024/01/28 02:54:54;;;;;;;5.28;2.35;;;;;;;6.50;66.19;100997.84;5078761;28;20395;-65
2024/01/28 02:57:19;;;;;;;6.18;3.22;;;;;;;6.49;66.39;101000.59;5075132;28;20033;-64
2024/01/28 02:59:44;;;;;;;6.07;3.97;;;;;;;6.46;65.72;100992.91;5078521;28;20029;-63
2024/01/28 03:02:10;;;;;;;6.00;3.42;;;;;;;6.46;66.07;100987.63;5075950;28;20063;-62
2024/01/28 03:04:39;;;;;;;5.95;4.40;;;;;;;6.50;65.75;100995.22;5078096;28;20028;-64
2024/01/28 03:07:05;;;;;;;8.18;4.50;;;;;;;6.48;64.94;100993.63;5076847;28;20208;-64
2024/01/28 03:09:30;;;;;;;6.43;4.22;;;;;;;6.53;65.49;100997.63;5078131;28;20036;-63
2024/01/28 03:11:56;;;;;;;6.57;4.78;;;;;;;6.46;65.33;100998.16;5076985;28;20357;-63
2024/01/28 03:14:21;;;;;;;10.60;5.32;;;;;;;6.45;64.93;100999.94;5077609;28;20040;-63
2024/01/28 03:16:48;;;;;;;8.90;5.50;;;;;;;6.37;65.54;100997.00;5077489;28;20047;-63
2024/01/28 03:19:14;;;;;;;7.93;4.40;;;;;;;6.33;65.31;101001.63;5077938;28;20041;-63
2024/01/28 03:21:40;;;;;;;8.65;5.63;;;;;;;6.32;65.64;100999.94;5077761;28;20340;-64
2024/01/28 03:24:06;;;;;;;6.20;5.32;;;;;;;6.31;65.51;101003.53;5077033;28;20048;-64
2024/01/28 03:26:34;;;;;;;9.10;5.07;;;;;;;6.37;65.90;101007.53;5075915;28;20039;-63
2024/01/28 03:29:00;;;;;;;6.75;4.40;;;;;;;6.34;64.97;101005.09;5077342;28;20043;-62
2024/01/28 03:31:25;;;;;;;9.02;4.38;;;;;;;6.30;65.36;101017.63;5077105;28;20036;-64
2024/01/28 03:33:51;;;;;;;9.25;5.22;;;;;;;6.38;65.82;101009.22;5075568;28;20036;-63
2024/01/28 03:36:16;;;;;;;6.57;4.63;;;;;;;6.47;65.26;101011.22;5076731;28;20039;-62
2024/01/28 03:38:42;;;;;;;7.82;5.15;;;;;;;6.56;64.41;101013.22;5075676;28;20040;-62
2024/01/28 03:41:08;;;;;;;11.68;5.43;;;;;;;6.59;64.51;101014.78;5076374;28;20208;-62
2024/01/28 03:43:33;;;;;;;10.50;5.55;;;;;;;6.60;63.67;101019.09;5073677;28;20350;-62
2024/01/28 03:45:59;;;;;;;9.30;5.40;;;;;;;6.65;63.95;101015.22;5076854;28;20040;-62
2024/01/28 03:48:24;;;;;;;7.00;4.50;;;;;;;6.69;62.80;101021.09;5073076;28;20037;-64
2024/01/28 03:50:49;;;;;;;7.60;4.40;;;;;;;6.70;63.63;101025.41;5076106;28;20427;-64
2024/01/28 03:53:15;;;;;;;5.25;3.85;;;;;;;6.75;62.55;101022.47;5074408;28;20039;-63
2024/01/28 03:55:43;;;;;;;3.97;3.38;;;;;;;6.72;63.24;101024.38;5076738;28;20035;-62
2024/01/28 03:58:10;;;;;;;5.60;3.33;;;;;;;6.75;62.91;101025.09;5074965;28;20239;-64
2024/01/28 04:00:35;;;;;;;6.47;2.90;;;;;;;6.74;62.79;101024.25;5077682;28;20028;-64
2024/01/28 04:03:01;;;;;;;5.22;2.60;;;;;;;6.75;63.07;101022.47;5075060;28;20071;-62
2024/01/28 04:05:26;;;;;;;6.15;3.20;;;;;;;6.69;62.74;101029.00;5076159;28;20033;-63
2024/01/28 04:07:52;;;;;;;5.15;2.70;;;;;;;6.65;62.62;101033.63;5076906;28;20315;-63
2024/01/28 04:10:19;;;;;;;2.63;2.22;;;;;;;6.53;63.37;101034.47;5074040;28;20067;-64
2024/01/28 04:12:44;;;;;;;3.72;2.75;;;;;;;6.36;63.97;101022.47;5076494;28;20035;-64
2024/01/28 04:15:10;;;;;;;4.53;3.08;;;;;;;6.28;65.25;101029.19;5074111;28;20039;-63
2024/01/28 04:17:36;;;;;;;7.40;4.25;;;;;;;6.16;65.55;101035.25;5077542;28;20431;-63
2024/01/28 04:20:03;;;;;;;15.52;6.32;;;;;;;5.97;65.94;101018.06;5075006;28;20036;-62
2024/01/28 04:22:30;;;;;;;14.10;6.90;;;;;;;6.08;66.12;101044.47;5076482;28;20048;-64
2024/01/28 04:24:55;;;;;;;7.22;4.32;;;;;;;6.05;66.61;101047.31;5074915;28;20040;-64
2024/01/28 04:27:20;;;;;;;4.15;2.60;;;;;;;6.02;66.47;101046.69;5076244;28;20051;-63
2024/01/28 04:29:46;;;;;;;3.83;2.70;;;;;;;6.03;66.11;101053.63;5075085;28;20075;-63
2024/01/28 04:32:11;;;;;;;3.95;3.00;;;;;;;5.95;66.27;101062.00;5076085;28;20040;-63
2024/01/28 04:34:37;;;;;;;6.15;2.88;;;;;;;5.94;66.72;101051.59;5074078;28;20241;-64
2024/01/28 04:37:03;;;;;;;5.28;2.90;;;;;;;5.93;67.24;101063.06;5076061;28;20032;-64
2024/01/28 04:39:28;;;;;;;5.78;2.80;;;;;;;5.86;67.71;101067.84;5075478;28;20067;-63
2024/01/28 04:41:54;;;;;;;5.55;2.75;;;;;;;5.83;66.94;101064.56;5075513;28;20043;-63
2024/01/28 04:44:22;;;;;;;3.22;2.38;;;;;;;5.90;67.28;101071.13;5076721;28;20036;-62
2024/01/28 04:46:48;;;;;;;4.95;2.78;;;;;;;5.90;67.23;101077.25;5073558;28;20036;-63
2024/01/28 04:49:14;;;;;;;5.22;2.83;;;;;;;5.91;66.74;101078.09;5076518;28;20040;-64
2024/01/28 04:51:40;;;;;;;4.50;2.70;;;;;;;5.95;66.55;101076.94;5073534;28;20028;-64
2024/01/28 04:54:06;;;;;;;3.13;2.28;;;;;;;6.09;66.36;101090.03;5076941;28;20073;-63
2024/01/28 04:56:32;;;;;;;4.20;2.30;;;;;;;6.09;66.02;101087.41;5074458;28;20218;-63
2024/01/28 04:58:58;;;;;;;5.18;2.75;;;;;;;6.05;65.60;101089.38;5075712;28;20032;-64
2024/01/28 05:01:24;;;;;;;4.82;3.00;;;;;;;6.03;66.23;101090.44;5073456;28;20041;-64
2024/01/28 05:03:49;;;;;;;3.80;2.30;;;;;;;6.01;66.19;101093.16;5076485;28;20036;-62
2024/01/28 05:06:14;;;;;;;3.40;2.53;;;;;;;5.96;66.37;101102.28;5075250;28;20355;-62
2024/01/28 05:08:40;;;;;;;3.30;2.30;;;;;;;6.01;66.20;101102.84;5076254;28;20041;-63
2024/01/28 05:11:06;;;;;;;3.63;2.58;;;;;;;6.02;65.39;101107.16;5074292;28;20033;-62
2024/01/28 05:13:32;;;;;;;4.97;3.00;;;;;;;5.99;65.80;101102.94;5075960;28;20028;-64
2024/01/28 05:15:58;;;;;;;5.57;3.50;;;;;;;6.02;65.76;101115.88;5075362;28;20051;-64
2024/01/28 05:18:23;;;;;;;4.97;3.20;;;;;;;5.92;65.71;101109.53;5074102;28;20227;-63
2024/01/28 05:20:49;;;;;;;5.35;2.75;;;;;;;5.98;65.47;101127.53;5076299;28;20044;-63
2024/01/28 05:23:16;;;;;;;8.23;5.13;;;;;;;5.98;65.49;101118.81;5076313;28;20218;-64
2024/01/28 05:25:41;;;;;;;5.88;5.10;;;;;;;6.01;65.34;101135.22;5079339;28;20040;-64
2024/01/28 05:28:08;;;;;;;5.53;4.10;;;;;;;6.04;65.86;101124.50;5076828;28;20032;-64
2024/01/28 05:30:33;;;;;;;12.10;7.95;;;;;;;6.02;65.04;101129.03;5079407;28;20040;-62
2024/01/28 05:32:59;;;;;;;13.68;9.13;;;;;;;5.98;65.83;101135.44;5077237;28;20059;-62
2024/01/28 05:35:24;;;;;;;13.77;9.77;;;;;;;5.92;66.02;101135.81;5077093;28;20256;-63
2024/01/28 05:37:50;;;;;;;8.05;4.72;;;;;;;5.89;65.16;101133.38;5077865;28;20033;-64
2024/01/28 05:40:16;;;;;;;9.57;4.95;;;;;;;5.84;65.48;101127.56;5077448;28;20441;-63
2024/01/28 05:42:42;;;;;;;7.10;4.28;;;;;;;5.80;65.99;101133.09;5077185;28;20062;-62
2024/01/28 05:45:07;;;;;;;8.25;4.53;;;;;;;5.70;66.07;101131.06;5078308;28;20036;-63
2024/01/28 05:47:33;;;;;;;9.63;5.40;;;;;;;5.69;65.99;101134.63;5078908;28;20039;-63
2024/01/28 05:49:58;;;;;;;12.18;6.70;;;;;;;5.63;66.17;101142.06;5077200;28;20885;-62
2024/01/28 05:52:24;;;;;;;8.60;5.07;;;;;;;5.58;66.68;101144.13;5078670;28;20046;-64
2024/01/28 05:54:49;;;;;;;6.50;4.32;;;;;;;5.52;66.69;101141.88;5077515;28;20176;-64
2024/01/28 05:57:15;;;;;;;5.88;4.00;;;;;;;5.59;66.38;101154.53;5078121;28;20032;-63
2024/01/28 05:59:40;;;;;;;12.48;6.65;;;;;;;5.62;66.28;101153.50;5078973;28;20214;-63
2024/01/28 06:02:06;;;;;;;9.50;5.25;;;;;;;5.67;66.28;101154.06;5078211;28;20335;-62
2024/01/28 06:04:31;;;;;;;7.93;4.65;;;;;;;5.64;66.17;101159.50;5077954;28;20048;-64
2024/01/28 06:06:58;;;;;;;9.10;5.22;;;;;;;5.62;66.46;101164.84;5078408;28;20032;-64
2024/01/28 06:09:23;;;;;;;4.88;3.85;;;;;;;5.67;66.20;101164.56;5079282;28;20580;-62
2024/01/28 06:11:49;;;;;;;6.93;4.75;;;;;;;5.67;66.56;101160.16;5078563;28;20044;-62
2024/01/28 06:14:14;;;;;;;6.50;4.13;;;;;;;5.67;65.78;101167.19;5079499;28;20071;-63
2024/01/28 06:16:40;;;;;;;5.15;4.43;;;;;;;5.64;66.29;101160.34;5076655;28;20048;-62
2024/01/28 06:19:05;;;;;;;11.75;5.93;;;;;;;5.68;65.69;101171.50;5079597;28;20031;-63
2024/01/28 06:21:31;;;;;;;12.38;6.70;;;;;;;5.64;66.48;101173.50;5077415;28;20074;-64
2024/01/28 06:23:56;;;;;;;8.77;4.68;;;;;;;5.63;66.27;101171.81;5078621;28;20079;-64
2024/01/28 06:26:22;;;;;;;10.43;4.93;;;;;;;5.72;66.04;101173.84;5077265;28;20199;-62
2024/01/28 06:28:48;;;;;;;10.95;5.40;;;;;;;5.72;66.07;101187.00;5079350;28;20345;-63
2024/01/28 06:31:14;;;;;;;9.05;5.93;;;;;;;5.81;66.37;101185.56;5077852;28;20047;-63
2024/01/28 06:33:40;;;;;;;7.00;5.03;;;;;;;5.88;66.46;101180.78;5077406;28;20249;-65
2024/01/28 06:36:07;;;;;;;7.07;5.00;;;;;;;5.87;65.85;101182.56;5077552;28;20032;-63
2024/01/28 06:38:32;;;;;;;5.97;3.88;;;;;;;6.00;66.02;101187.91;5078287;28;20111;-63
2024/01/28 06:40:58;;;;;;;8.05;4.82;;;;;;;6.03;65.30;101187.72;5076748;28;20048;-62
2024/01/28 06:43:25;;;;;;;8.98;4.88;;;;;;;6.10;65.79;101191.66;5077885;28;20063;-63
2024/01/28 06:45:54;;;;;;;9.55;5.20;;;;;;;6.08;65.74;101186.47;5078514;28;20082;-63
2024/01/28 06:48:19;;;;;;;6.68;4.60;;;;;;;6.24;65.85;101196.03;5077500;28;20081;-64
2024/01/28 06:50:46;;;;;;;10.57;5.00;;;;;;;6.30;65.05;101196.50;5078852;28;20040;-63
2024/01/28 06:53:12;;;;;;;11.52;5.00;;;;;;;6.47;65.11;101198.03;5076754;28;20312;-63
2024/01/28 06:55:37;;;;;;;5.93;3.85;;;;;;;6.60;64.84;101196.28;5078703;28;20046;-63
2024/01/28 06:58:03;;;;;;;6.38;3.47;;;;;;;6.71;63.90;101200.84;5075930;28;20054;-63
2024/01/28 07:00:28;;;;;;;7.50;4.05;;;;;;;6.72;63.42;101197.25;5078835;28;20032;-64
2024/01/28 07:02:54;;;;;;;6.63;3.83;;;;;;;6.77;64.23;101192.53;5076721;28;20044;-64
2024/01/28 07:05:20;;;;;;;10.48;5.28;;;;;;;6.89;63.27;101196.13;5077690;28;20082;-63
2024/01/28 07:07:46;;;;;;;8.90;4.47;;;;;;;6.83;62.65;101188.63;5076629;28;20024;-62
2024/01/28 07:10:12;;;;;;;6.93;4.35;;;;;;;6.84;63.02;101191.16;5077165;28;20032;-62
2024/01/28 07:12:39;;;;;;;10.13;3.78;;;;;;;7.03;62.62;101203.94;5076315;28;20060;-63
2024/01/28 07:15:05;;;;;;;7.50;4.00;;;;;;;7.19;62.56;101201.09;5077110;28;20349;-64
2024/01/28 07:17:31;;;;;;;7.10;3.58;;;;;;;7.25;62.33;101206.81;5076283;28;20036;-63
2024/01/28 07:19:57;;;;;;;4.72;2.97;;;;;;;7.24;61.93;101189.31;5076808;28;20041;-62
2024/01/28 07:22:22;;;;;;;6.38;3.13;;;;;;;7.55;62.05;101203.03;5076256;28;20044;-63
2024/01/28 07:24:48;;;;;;;5.68;3.40;;;;;;;7.67;61.37;101199.53;5077167;28;20032;-63
2024/01/28 07:27:14;;;;;;;4.97;2.95;;;;;;;7.78;60.68;101207.53;5077045;28;20056;-63
2024/01/28 07:29:39;;;;;;;4.15;2.80;;;;;;;7.96;61.00;101203.56;5076848;28;20036;-63
2024/01/28 07:32:05;;;;;;;4.70;2.92;;;;;;;8.13;59.85;101207.63;5077355;28;20032;-64
2024/01/28 07:34:30;;;;;;;2.83;2.60;;;;;;;8.06;59.21;101203.75;5075996;28;20024;-64
2024/01/28 07:36:57;;;;;;;6.78;3.42;;;;;;;8.08;59.18;101201.84;5078039;28;20036;-63
2024/01/28 07:39:23;;;;;;;4.75;2.65;;;;;;;7.91;59.72;101196.94;5076371;28;20085;-63
2024/01/28 07:41:48;;;;;;;7.82;3.10;;;;;;;7.84;58.87;101200.97;5077812;28;20028;-62
2024/01/28 07:44:14;;;;;;;4.65;2.85;;;;;;;7.79;59.75;101201.28;5076256;28;20043;-63
2024/01/28 07:46:40;;;;;;;4.15;2.58;;;;;;;7.86;59.92;101209.63;5078217;28;20052;-63
2024/01/28 07:49:06;;;;;;;5.35;3.00;;;;;;;7.98;59.11;101212.22;5078147;28;20028;-63
2024/01/28 07:51:31;;;;;;;4.85;2.88;;;;;;;8.06;59.63;101213.47;5077580;28;20060;-63
2024/01/28 07:53:57;;;;;;;6.10;2.92;;;;;;;8.15;58.67;101213.66;5077595;28;20143;-65
2024/01/28 07:56:22;;;;;;;4.00;2.28;;;;;;;8.20;58.11;101216.78;5076891;28;20395;-64
2024/01/28 07:58:48;;;;;;;5.03;2.60;;;;;;;8.29;57.39;101216.13;5074568;28;20025;-63
2024/01/28 08:01:14;;;;;;;4.95;2.50;;;;;;;8.31;57.31;101219.50;5071751;28;20040;-63
2024/01/28 08:03:39;;;;;;;5.03;2.47;;;;;;;8.32;56.95;101220.34;5077382;28;20310;-63
2024/01/28 08:06:05;;;;;;;5.57;2.90;;;;;;;8.44;57.46;101216.03;5072774;28;20338;-63
2024/01/28 08:08:31;;;;;;;4.63;2.25;;;;;;;8.46;57.55;101214.97;5078042;28;20040;-65
2024/01/28 08:10:57;;;;;;;4.53;2.55;;;;;;;8.50;57.36;101215.56;5076304;28;20109;-64
2024/01/28 08:13:23;;;;;;;4.05;2.65;;;;;;;8.51;57.55;101223.38;5077900;28;20390;-63
2024/01/28 08:15:48;;;;;;;5.03;2.58;;;;;;;8.61;57.50;101227.03;5070633;28;20046;-63
2024/01/28 08:18:14;;;;;;;4.47;2.80;;;;;;;8.77;57.51;101224.09;5077433;28;20048;-63
2024/01/28 08:20:39;;;;;;;3.97;2.50;;;;;;;8.83;56.06;101218.34;5074937;28;20028;-63
2024/01/28 08:23:05;;;;;;;10.07;5.75;;;;;;;8.84;55.91;101227.97;5076534;28;20032;-63
2024/01/28 08:25:31;;;;;;;6.65;3.67;;;;;;;8.79;55.93;101222.19;5075378;28;20579;-63
2024/01/28 08:27:56;;;;;;;5.80;2.45;;;;;;;8.90;55.45;101219.56;5075143;28;20321;-64
2024/01/28 08:30:24;;;;;;;4.40;2.35;;;;;;;9.01;56.09;101213.47;5076000;28;20056;-64
2024/01/28 08:32:50;;;;;;;5.78;2.45;;;;;;;8.99;54.24;101211.91;5072834;28;20269;-63
2024/01/28 08:35:17;;;;;;;4.32;2.20;;;;;;;9.04;55.47;101223.81;5074914;28;20283;-63
2024/01/28 08:37:42;;;;;;;3.78;2.50;;;;;;;9.14;55.52;101226.59;5075341;28;20040;-63
2024/01/28 08:40:08;;;;;;;4.72;3.10;;;;;;;9.13;55.15;101230.22;5075718;28;20043;-63
2024/01/28 08:42:34;;;;;;;4.55;2.10;;;;;;;9.11;55.36;101227.69;5076578;28;20189;-62
2024/01/28 08:45:00;;;;;;;3.15;2.20;;;;;;;9.21;54.57;101231.31;5075930;28;20127;-63
2024/01/28 08:47:25;;;;;;;4.97;2.42;;;;;;;9.27;54.98;101230.00;5075011;28;20105;-65
2024/01/28 08:49:51;;;;;;;5.43;2.47;;;;;;;9.29;54.65;101242.13;5076456;28;20072;-64
2024/01/28 08:52:18;;;;;;;3.72;2.70;;;;;;;9.36;54.02;101249.59;5076102;28;20036;-63
2024/01/28 08:54:45;;;;;;;4.47;2.85;;;;;;;9.46;54.61;101246.16;5075082;28;20029;-63
2024/01/28 08:57:11;;;;;;;4.78;2.55;;;;;;;9.54;52.38;101251.69;5078445;28;20024;-63
2024/01/28 08:59:37;;;;;;;4.65;1.80;;;;;;;9.52;51.40;101248.31;5079918;28;20033;-63
2024/01/28 09:02:03;;;;;;;5.50;2.33;;;;;;;9.48;52.75;101252.16;5079648;28;20033;-63
2024/01/28 09:04:28;;;;;;;3.35;2.22;;;;;;;9.52;50.94;101242.19;5080901;28;20213;-63
2024/01/28 09:06:54;;;;;;;2.92;1.75;;;;;;;9.57;51.00;101246.16;5080953;28;20339;-63
2024/01/28 09:09:19;;;;;;;3.25;2.15;;;;;;;9.60;50.56;101245.94;5081016;28;20383;-63
2024/01/28 09:11:45;;;;;;;4.72;1.90;;;;;;;9.49;48.80;101253.00;5079389;28;20059;-63
2024/01/28 09:14:10;;;;;;;4.07;1.63;;;;;;;9.45;49.95;101248.91;5080095;28;20040;-64
2024/01/28 09:16:36;;;;;;;4.07;2.10;;;;;;;9.35;49.74;101245.25;5078983;28;20447;-64
2024/01/28 09:19:03;;;;;;;3.42;1.55;;;;;;;9.41;48.87;101243.03;5079247;28;20242;-62
2024/01/28 09:21:30;;;;;;;3.42;1.77;;;;;;;9.26;49.07;101241.53;5079632;28;20044;-63
2024/01/28 09:23:57;;;;;;;3.78;1.70;;;;;;;9.08;50.03;101251.69;5078461;28;20245;-63
2024/01/28 09:26:22;;;;;;;3.08;1.95;;;;;;;9.25;49.48;101253.91;5080156;28;20037;-63
2024/01/28 09:28:48;;;;;;;2.40;1.50;;;;;;;9.26;48.46;101247.66;5080405;28;20074;-63
2024/01/28 09:31:13;;;;;;;3.15;1.35;;;;;;;9.17;48.12;101239.59;5080169;28;20241;-63
2024/01/28 09:33:38;;;;;;;4.25;2.35;;;;;;;9.27;49.10;101243.22;5079457;28;20047;-63
2024/01/28 09:36:04;;;;;;;3.05;1.90;;;;;;;9.31;49.44;101238.53;5079546;28;20074;-63
2024/01/28 09:38:30;;;;;;;2.20;1.98;;;;;;;9.36;49.41;101245.16;5080908;28;20052;-63
2024/01/28 09:41:16;;;;;;;5.28;2.00;;;;;;;9.36;49.63;101233.72;5080693;28;20044;-65
2024/01/28 09:43:43;;;;;;;6.90;2.20;;;;;;;9.34;48.01;101233.00;5080461;28;20036;-63
2024/01/28 09:46:09;;;;;;;2.17;1.58;;;;;;;9.34;47.74;101238.28;5081152;28;20234;-63
2024/01/28 09:48:35;;;;;;;4.93;1.85;;;;;;;9.10;48.58;101230.44;5080666;28;20038;-62
2024/01/28 09:51:00;;;;;;;3.42;1.58;;;;;;;9.13;50.02;101232.84;5080641;28;20139;-62
2024/01/28 09:53:26;;;;;;;4.00;1.90;;;;;;;9.37;50.56;101225.72;5079476;28;20064;-61
2024/01/28 09:55:51;;;;;;;3.70;1.80;;;;;;;9.40;48.68;101227.28;5080536;28;20238;-62
2024/01/28 09:58:17;;;;;;;2.05;1.60;;;;;;;9.50;47.48;101229.09;5080207;28;20070;-62
2024/01/28 10:00:43;;;;;;;3.25;1.67;;;;;;;9.24;47.04;101217.84;5080793;28;20040;-62
2024/01/28 10:03:09;;;;;;;3.40;1.67;;;;;;;9.27;47.03;101228.19;5080070;28;20182;-64
2024/01/28 10:05:35;;;;;;;3.13;1.67;;;;;;;9.37;46.76;101228.34;5079609;28;20052;-62
2024/01/28 10:08:02;;;;;;;4.65;1.70;;;;;;;9.36;47.28;101228.44;5071825;28;20037;-63
2024/01/28 10:10:28;;;;;;;3.50;1.67;;;;;;;9.35;47.47;101234.69;5078768;28;20043;-63
2024/01/28 10:12:54;;;;;;;3.38;1.70;;;;;;;9.57;47.66;101224.16;5076752;28;20263;-64
2024/01/28 10:15:23;;;;;;;2.95;2.13;;;;;;;9.47;47.50;101218.75;5077974;28;20082;-64
2024/01/28 10:17:49;;;;;;;2.95;1.88;;;;;;;9.36;46.53;101221.34;5078549;28;20094;-63
2024/01/28 10:20:20;;;;;;;4.30;1.50;;;;;;;9.55;46.83;101216.34;5078279;28;20032;-63
2024/01/28 10:22:46;;;;;;;3.58;1.92;;;;;;;9.69;46.61;101220.56;5078526;28;20052;-63
2024/01/28 10:25:15;;;;;;;6.20;1.35;;;;;;;9.69;45.83;101220.56;5077746;28;20040;-63
2024/01/28 10:27:41;;;;;;;3.22;1.52;;;;;;;9.72;44.67;101217.69;5079116;28;20036;-63
2024/01/28 10:30:07;;;;;;;2.15;1.50;;;;;;;9.76;44.75;101221.78;5077980;28;20029;-64
2024/01/28 10:32:33;;;;;;;3.38;1.92;;;;;;;9.71;46.23;101217.81;5079276;28;20036;-63
2024/01/28 10:34:58;;;;;;;1.65;1.52;;;;;;;9.81;46.21;101216.94;5076841;28;20060;-63
2024/01/28 10:37:27;;;;;;;5.07;1.73;;;;;;;9.88;46.23;101206.72;5078318;28;20543;-63
2024/01/28 10:39:58;;;;;;;3.42;1.80;;;;;;;9.60;46.13;101205.41;5076025;28;20107;-63
2024/01/28 10:42:26;;;;;;;1.63;1.33;;;;;;;9.70;47.50;101216.97;5078434;28;20064;-63
2024/01/28 10:44:55;;;;;;;2.30;1.90;;;;;;;9.69;47.26;101214.44;5077014;28;20245;-63
2024/01/28 10:47:26;;;;;;;3.38;1.90;;;;;;;9.84;47.63;101221.16;5078590;28;20039;-63
2024/01/28 10:49:59;;;;;;;3.92;1.83;;;;;;;9.95;46.45;101215.03;5077639;28;20037;-65
2024/01/28 10:52:26;;;;;;;2.20;2.05;;;;;;;9.56;46.95;101212.75;5077915;28;20104;-65
2024/01/28 10:54:52;;;;;;;3.80;2.50;;;;;;;9.48;46.95;101201.94;5075088;28;20044;-63
2024/01/28 10:57:21;;;;;;;4.63;1.90;;;;;;;9.47;46.92;101212.63;5078436;28;20067;-63
2024/01/28 10:59:48;;;;;;;4.93;1.95;;;;;;;9.48;47.34;101204.56;5074355;28;20343;-63
2024/01/28 11:02:14;;;;;;;7.80;2.85;;;;;;;9.62;46.99;101211.44;5074608;28;20112;-63
2024/01/28 11:04:40;;;;;;;2.53;1.90;;;;;;;9.83;46.60;101203.59;5076727;28;20074;-64
2024/01/28 11:07:06;;;;;;;4.80;2.58;;;;;;;9.90;46.44;101213.56;5074652;28;20044;-63
2024/01/28 11:09:32;;;;;;;4.50;2.63;;;;;;;9.96;46.48;101222.84;5079353;28;20028;-63
2024/01/28 11:11:58;;;;;;;3.88;3.05;;;;;;;10.00;46.29;101212.84;5076485;28;20029;-63
2024/01/28 11:14:27;;;;;;;2.30;2.10;;;;;;;9.84;46.32;101224.66;5079295;28;20071;-63
2024/01/28 11:16:52;;;;;;;3.80;1.80;;;;;;;9.92;44.26;101221.41;5073291;28;20262;-63
2024/01/28 11:19:18;;;;;;;3.72;1.83;;;;;;;9.89;45.76;101219.00;5077646;28;20036;-65
2024/01/28 11:21:52;;;;;;;2.50;1.95;;;;;;;9.78;45.69;101226.94;5076892;28;20043;-65
2024/01/28 11:24:17;;;;;;;6.40;3.60;;;;;;;9.89;46.77;101224.28;5078035;28;20036;-63
2024/01/28 11:26:47;;;;;;;2.75;2.55;;;;;;;9.95;45.78;101218.50;5077758;28;20353;-63